createdAt,value
2018-05-11T00:00:49.264Z,100519.66
2018-05-11T00:03:50.534Z,100527.66
2018-05-11T00:06:51.925Z,100520.66
2018-05-11T00:09:53.179Z,100517.30
2018-05-11T00:12:54.432Z,100521.16
2018-05-11T00:15:55.689Z,100522.48
2018-05-11T00:18:56.985Z,100516.53
2018-05-11T00:21:58.250Z,100517.32
2018-05-11T00:24:59.497Z,100521.09
2018-05-11T00:28:00.792Z,100523.20
2018-05-11T00:31:02.810Z,100530.20
2018-05-11T00:34:04.074Z,100530.53
2018-05-11T00:37:05.366Z,100534.28
2018-05-11T00:40:06.606Z,100533.02
2018-05-11T00:43:07.859Z,100532.55
2018-05-11T00:46:09.102Z,100534.76
2018-05-11T00:49:11.126Z,100535.09
2018-05-11T00:52:12.369Z,100532.37
2018-05-11T00:55:32.237Z,100525.87
2018-05-11T00:58:36.898Z,100528.16
2018-05-11T01:01:38.217Z,100535.94
2018-05-11T01:04:39.496Z,100535.06
2018-05-11T01:07:40.743Z,100541.27
2018-05-11T01:10:42.023Z,100542.24
2018-05-11T01:13:43.310Z,100538.20
2018-05-11T01:16:44.574Z,100540.88
2018-05-11T01:19:45.842Z,100548.61
2018-05-11T01:22:47.097Z,100541.91
2018-05-11T01:25:48.344Z,100544.91
2018-05-11T01:28:50.322Z,100553.06
2018-05-11T01:31:51.590Z,100554.24
2018-05-11T01:34:53.630Z,100545.19
2018-05-11T01:37:54.898Z,100551.23
2018-05-11T01:40:56.161Z,100545.80
2018-05-11T01:43:57.425Z,100545.97
2018-05-11T01:46:58.682Z,100534.50
2018-05-11T01:49:59.942Z,100538.75
2018-05-11T01:53:01.187Z,100534.85
2018-05-11T01:56:02.465Z,100539.05
2018-05-11T01:59:03.691Z,100538.28
2018-05-11T02:02:05.692Z,100539.95
2018-05-11T02:05:06.984Z,100539.35
2018-05-11T02:08:08.264Z,100540.98
2018-05-11T02:11:09.533Z,100544.81
2018-05-11T02:14:10.790Z,100542.30
2018-05-11T02:17:12.033Z,100541.33
2018-05-11T02:20:13.314Z,100541.44
2018-05-11T02:23:14.579Z,100544.59
2018-05-11T02:26:15.813Z,100543.54
2018-05-11T02:29:17.066Z,100552.53
2018-05-11T02:32:18.322Z,100542.21
2018-05-11T02:35:19.607Z,100545.00
2018-05-11T02:38:20.875Z,100535.64
2018-05-11T02:41:22.188Z,100530.47
2018-05-11T02:44:24.193Z,100533.42
2018-05-11T02:47:25.468Z,100526.99
2018-05-11T02:50:26.722Z,100536.82
2018-05-11T02:53:27.968Z,100537.94
2018-05-11T02:56:29.212Z,100540.95
2018-05-11T02:59:31.196Z,100536.33
2018-05-11T03:02:33.212Z,100536.67
2018-05-11T03:05:34.444Z,100532.61
2018-05-11T03:08:36.426Z,100535.31
2018-05-11T03:11:38.434Z,100541.06
2018-05-11T03:14:39.714Z,100542.30
2018-05-11T03:17:41.718Z,100540.17
2018-05-11T03:20:42.977Z,100545.51
2018-05-11T03:23:44.234Z,100545.16
2018-05-11T03:26:45.483Z,100558.03
2018-05-11T03:29:46.755Z,100545.89
2018-05-11T03:32:48.016Z,100555.61
2018-05-11T03:35:49.277Z,100557.87
2018-05-11T03:38:50.546Z,100557.14
2018-05-11T03:41:51.792Z,100565.47
2018-05-11T03:44:53.062Z,100559.95
2018-05-11T03:47:54.317Z,100565.98
2018-05-11T03:50:55.551Z,100564.05
2018-05-11T03:53:58.404Z,100571.02
2018-05-11T03:57:00.565Z,100570.61
2018-05-11T04:00:01.948Z,100581.48
2018-05-11T04:03:22.429Z,100572.02
2018-05-11T04:06:42.204Z,100574.42
2018-05-11T04:09:45.285Z,100576.34
2018-05-11T04:12:46.538Z,100588.89
2018-05-11T04:15:47.777Z,100591.37
2018-05-11T04:18:49.018Z,100587.72
2018-05-11T04:21:50.262Z,100587.07
2018-05-11T04:24:52.286Z,100586.22
2018-05-11T04:27:53.541Z,100592.87
2018-05-11T04:30:54.825Z,100596.32
2018-05-11T04:33:56.133Z,100590.19
2018-05-11T04:36:58.144Z,100586.45
2018-05-11T04:39:59.396Z,100589.66
2018-05-11T04:43:00.622Z,100594.45
2018-05-11T04:46:01.860Z,100589.25
2018-05-11T04:49:03.146Z,100596.17
2018-05-11T04:52:04.405Z,100599.06
2018-05-11T04:55:05.689Z,100603.08
2018-05-11T04:58:07.669Z,100603.30
2018-05-11T05:01:09.661Z,100609.14
2018-05-11T05:04:11.642Z,100605.17
2018-05-11T05:07:13.609Z,100606.94
2018-05-11T05:10:15.605Z,100604.39
2018-05-11T05:13:17.626Z,100590.73
2018-05-11T05:16:18.896Z,100600.45
2018-05-11T05:19:20.189Z,100602.22
2018-05-11T05:22:21.453Z,100602.31
2018-05-11T05:25:22.694Z,100603.98
2018-05-11T05:28:23.950Z,100602.86
2018-05-11T05:31:25.258Z,100604.56
2018-05-11T05:34:27.234Z,100601.97
2018-05-11T05:37:29.404Z,100605.04
2018-05-11T05:40:30.661Z,100612.85
2018-05-11T05:43:32.021Z,100601.81
2018-05-11T05:46:33.310Z,100607.50
2018-05-11T05:49:35.294Z,100606.69
2018-05-11T05:52:37.987Z,100605.31
2018-05-11T05:55:39.985Z,100599.34
2018-05-11T05:58:41.233Z,100598.84
2018-05-11T06:01:43.200Z,100604.44
2018-05-11T06:04:44.526Z,100600.06
2018-05-11T06:07:45.786Z,100602.17
2018-05-11T06:10:47.079Z,100611.43
2018-05-11T06:13:48.302Z,100603.45
2018-05-11T06:16:49.538Z,100595.77
2018-05-11T06:19:51.542Z,100598.98
2018-05-11T06:22:52.783Z,100608.36
2018-05-11T06:25:54.765Z,100603.17
2018-05-11T06:28:56.773Z,100606.73
2018-05-11T06:31:58.014Z,100616.30
2018-05-11T06:34:59.241Z,100610.50
2018-05-11T06:38:00.491Z,100611.27
2018-05-11T06:41:01.761Z,100611.28
2018-05-11T06:44:03.014Z,100605.92
2018-05-11T06:47:04.249Z,100605.05
2018-05-11T06:50:05.494Z,100597.33
2018-05-11T06:53:06.735Z,100600.23
2018-05-11T06:56:08.730Z,100598.98
2018-05-11T06:59:09.959Z,100598.02
2018-05-11T07:02:11.179Z,100586.14
2018-05-11T07:05:12.408Z,100590.59
2018-05-11T07:08:14.366Z,100582.55
2018-05-11T07:11:15.614Z,100583.41
2018-05-11T07:14:16.881Z,100586.28
2018-05-11T07:17:18.129Z,100581.12
2018-05-11T07:20:19.377Z,100577.95
2018-05-11T07:23:20.610Z,100570.70
2018-05-11T07:26:22.596Z,100572.82
2018-05-11T07:29:23.859Z,100564.96
2018-05-11T07:32:25.106Z,100561.58
2018-05-11T07:35:27.103Z,100572.42
2018-05-11T07:38:28.334Z,100569.11
2018-05-11T07:41:29.601Z,100561.50
2018-05-11T07:44:30.867Z,100565.30
2018-05-11T07:47:32.138Z,100567.23
2018-05-11T07:50:34.138Z,100566.86
2018-05-11T07:53:35.385Z,100572.56
2018-05-11T07:56:37.359Z,100576.70
2018-05-11T07:59:39.305Z,100568.17
2018-05-11T08:02:40.546Z,100565.17
2018-05-11T08:05:41.775Z,100567.20
2018-05-11T08:08:43.801Z,100569.90
2018-05-11T08:11:45.080Z,100556.85
2018-05-11T08:14:46.340Z,100559.00
2018-05-11T08:17:47.621Z,100552.81
2018-05-11T08:20:48.893Z,100550.80
2018-05-11T08:23:50.902Z,100557.08
2018-05-11T08:26:52.201Z,100551.69
2018-05-11T08:29:53.413Z,100554.08
2018-05-11T08:32:55.412Z,100553.83
2018-05-11T08:35:56.741Z,100552.95
2018-05-11T08:38:58.649Z,100544.50
2018-05-11T08:41:59.916Z,100541.57
2018-05-11T08:45:01.176Z,100542.55
2018-05-11T08:48:02.443Z,100529.45
2018-05-11T08:51:03.683Z,100538.52
2018-05-11T08:54:05.693Z,100535.41
2018-05-11T08:57:06.952Z,100533.38
2018-05-11T09:00:08.225Z,100535.35
2018-05-11T09:03:09.499Z,100521.24
2018-05-11T09:06:10.776Z,100514.34
2018-05-11T09:09:12.034Z,100520.32
2018-05-11T09:12:13.258Z,100519.73
2018-05-11T09:15:16.057Z,100522.34
2018-05-11T09:18:18.068Z,100516.52
2018-05-11T09:21:19.313Z,100511.61
2018-05-11T09:24:20.535Z,100508.70
2018-05-11T09:27:21.774Z,100510.24
2018-05-11T09:30:23.057Z,100508.61
2018-05-11T09:33:24.295Z,100495.25
2018-05-11T09:36:25.546Z,100502.63
2018-05-11T09:39:26.923Z,100496.19
2018-05-11T09:42:28.109Z,100490.15
2018-05-11T09:45:29.412Z,100488.95
2018-05-11T09:48:30.696Z,100489.72
2018-05-11T09:51:31.964Z,100482.16
2018-05-11T09:54:33.258Z,100481.77
2018-05-11T09:57:34.525Z,100484.02
2018-05-11T10:00:35.826Z,100479.12
2018-05-11T10:03:37.812Z,100485.14
2018-05-11T10:06:39.091Z,100470.87
2018-05-11T10:09:40.370Z,100480.64
2018-05-11T10:12:41.644Z,100476.31
2018-05-11T10:15:42.904Z,100475.25
2018-05-11T10:18:44.164Z,100469.16
2018-05-11T10:21:45.395Z,100476.20
2018-05-11T10:24:46.675Z,100470.49
2018-05-11T10:27:47.918Z,100468.11
2018-05-11T10:30:49.147Z,100470.98
2018-05-11T10:33:50.413Z,100468.84
2018-05-11T10:36:51.677Z,100462.56
2018-05-11T10:39:53.035Z,100451.09
2018-05-11T10:42:54.203Z,100461.20
2018-05-11T10:45:55.459Z,100459.12
2018-05-11T10:48:56.709Z,100462.82
2018-05-11T10:51:58.695Z,100456.29
2018-05-11T10:54:59.951Z,100449.70
2018-05-11T10:58:01.194Z,100439.05
2018-05-11T11:01:02.478Z,100458.36
2018-05-11T11:04:03.731Z,100448.62
2018-05-11T11:07:04.983Z,100446.48
2018-05-11T11:10:06.221Z,100441.73
2018-05-11T11:13:07.483Z,100438.17
2018-05-11T11:16:08.773Z,100430.25
2018-05-11T11:19:10.041Z,100419.17
2018-05-11T11:22:11.307Z,100424.59
2018-05-11T11:25:12.554Z,100427.58
2018-05-11T11:28:13.814Z,100416.15
2018-05-11T11:31:15.090Z,100417.02
2018-05-11T11:34:16.409Z,100404.45
2018-05-11T11:37:17.636Z,100399.09
2018-05-11T11:40:18.879Z,100393.89
2018-05-11T11:43:20.145Z,100393.52
2018-05-11T11:46:21.426Z,100396.78
2018-05-11T11:49:22.667Z,100383.85
2018-05-11T11:52:23.953Z,100380.56
2018-05-11T11:55:25.934Z,100386.97
2018-05-11T11:58:27.194Z,100374.20
2018-05-11T12:01:28.468Z,100368.84
2018-05-11T12:04:29.695Z,100356.06
2018-05-11T12:07:30.974Z,100360.47
2018-05-11T12:10:32.221Z,100349.73
2018-05-11T12:13:33.462Z,100359.85
2018-05-11T12:16:34.710Z,100354.06
2018-05-11T12:19:36.725Z,100345.57
2018-05-11T12:22:37.949Z,100346.78
2018-05-11T12:25:39.923Z,100352.95
2018-05-11T12:28:41.917Z,100353.75
2018-05-11T12:31:43.928Z,100346.17
2018-05-11T12:34:45.182Z,100348.51
2018-05-11T12:37:46.455Z,100353.31
2018-05-11T12:40:47.697Z,100348.51
2018-05-11T12:43:48.942Z,100340.11
2018-05-11T12:46:50.193Z,100345.23
2018-05-11T12:49:51.476Z,100346.56
2018-05-11T12:52:53.552Z,100343.20
2018-05-11T12:55:54.776Z,100340.61
2018-05-11T12:58:56.020Z,100332.33
2018-05-11T13:01:57.266Z,100334.08
2018-05-11T13:04:58.536Z,100330.42
2018-05-11T13:07:59.813Z,100331.01
2018-05-11T13:11:01.096Z,100331.84
2018-05-11T13:14:02.346Z,100329.84
2018-05-11T13:17:04.361Z,100328.87
2018-05-11T13:20:05.601Z,100316.26
2018-05-11T13:23:06.839Z,100316.86
2018-05-11T13:26:08.105Z,100315.97
2018-05-11T13:29:09.397Z,100315.20
2018-05-11T13:32:10.649Z,100307.84
2018-05-11T13:35:11.922Z,100299.03
2018-05-11T13:38:13.167Z,100303.28
2018-05-11T13:41:14.420Z,100295.56
2018-05-11T13:44:15.643Z,100305.73
2018-05-11T13:47:17.642Z,100301.45
2018-05-11T13:50:18.915Z,100295.53
2018-05-11T13:53:20.174Z,100294.78
2018-05-11T13:56:21.462Z,100293.84
2018-05-11T13:59:22.745Z,100298.56
2018-05-11T14:02:23.995Z,100290.59
2018-05-11T14:05:25.241Z,100284.80
2018-05-11T14:08:26.486Z,100280.89
2018-05-11T14:11:27.743Z,100288.63
2018-05-11T14:14:29.000Z,100281.45
2018-05-11T14:17:30.978Z,100274.33
2018-05-11T14:20:32.992Z,100278.55
2018-05-11T14:23:34.229Z,100279.27
2018-05-11T14:26:35.507Z,100267.69
2018-05-11T14:29:36.734Z,100257.72
2018-05-11T14:32:37.980Z,100261.19
2018-05-11T14:35:39.222Z,100256.58
2018-05-11T14:38:40.475Z,100256.68
2018-05-11T14:41:41.729Z,100254.17
2018-05-11T14:44:42.959Z,100256.90
2018-05-11T14:47:44.920Z,100247.94
2018-05-11T14:50:46.174Z,100242.59
2018-05-11T14:53:47.395Z,100238.92
2018-05-11T14:56:48.638Z,100234.10
2018-05-11T14:59:49.902Z,100232.95
2018-05-11T15:02:51.166Z,100233.80
2018-05-11T15:05:52.422Z,100228.86
2018-05-11T15:08:54.441Z,100229.29
2018-05-11T15:11:55.716Z,100231.99
2018-05-11T15:14:56.966Z,100227.63
2018-05-11T15:17:58.209Z,100225.98
2018-05-11T15:20:59.473Z,100221.88
2018-05-11T15:24:00.749Z,100222.48
2018-05-11T15:27:01.996Z,100222.06
2018-05-11T15:30:03.276Z,100229.05
2018-05-11T15:33:04.537Z,100216.66
2018-05-11T15:36:05.783Z,100216.03
2018-05-11T15:39:07.064Z,100214.20
2018-05-11T15:42:08.311Z,100205.61
2018-05-11T15:45:09.579Z,100198.97
2018-05-11T15:48:10.821Z,100200.05
2018-05-11T15:51:12.825Z,100197.16
2018-05-11T15:54:14.097Z,100200.98
2018-05-11T15:57:15.378Z,100187.58
2018-05-11T16:00:16.637Z,100195.25
2018-05-11T16:03:17.886Z,100198.72
2018-05-11T16:06:19.109Z,100197.70
2018-05-11T16:09:21.101Z,100198.28
2018-05-11T16:12:23.116Z,100191.45
2018-05-11T16:15:24.411Z,100189.22
2018-05-11T16:18:25.661Z,100188.27
2018-05-11T16:21:26.906Z,100193.47
2018-05-11T16:24:28.170Z,100188.69
2018-05-11T16:27:29.443Z,100187.09
2018-05-11T16:30:30.726Z,100187.23
2018-05-11T16:33:31.973Z,100173.44
2018-05-11T16:36:33.202Z,100176.06
2018-05-11T16:39:34.455Z,100184.81
2018-05-11T16:42:35.706Z,100171.88
2018-05-11T16:45:37.706Z,100172.80
2018-05-11T16:48:38.959Z,100167.78
2018-05-11T16:51:40.983Z,100172.73
2018-05-11T16:54:42.219Z,100170.41
2018-05-11T16:57:43.473Z,100165.23
2018-05-11T17:00:44.724Z,100164.82
2018-05-11T17:03:46.009Z,100162.36
2018-05-11T17:06:47.249Z,100162.83
2018-05-11T17:09:49.275Z,100169.00
2018-05-11T17:12:50.522Z,100167.49
2018-05-11T17:15:51.797Z,100169.44
2018-05-11T17:18:53.065Z,100164.14
2018-05-11T17:21:54.299Z,100161.64
2018-05-11T17:24:55.572Z,100160.00
2018-05-11T17:27:56.827Z,100167.21
2018-05-11T17:30:58.095Z,100159.82
2018-05-11T17:33:59.319Z,100159.17
2018-05-11T17:37:00.585Z,100157.61
2018-05-11T17:40:01.839Z,100164.59
2018-05-11T17:43:03.188Z,100161.19
2018-05-11T17:46:05.148Z,100161.39
2018-05-11T17:49:06.422Z,100159.67
2018-05-11T17:52:07.668Z,100161.82
2018-05-11T17:55:08.925Z,100156.53
2018-05-11T17:58:10.200Z,100160.48
2018-05-11T18:01:11.500Z,100164.83
2018-05-11T18:04:12.742Z,100163.37
2018-05-11T18:07:13.994Z,100169.97
2018-05-11T18:10:15.276Z,100168.67
2018-05-11T18:13:16.554Z,100164.73
2018-05-11T18:16:17.813Z,100166.19
2018-05-11T18:19:19.055Z,100166.92
2018-05-11T18:22:20.309Z,100168.50
2018-05-11T18:25:21.565Z,100164.15
2018-05-11T18:28:22.828Z,100157.29
2018-05-11T18:31:24.077Z,100160.55
2018-05-11T18:34:25.345Z,100155.56
2018-05-11T18:37:26.612Z,100149.75
2018-05-11T18:40:27.891Z,100155.87
2018-05-11T18:43:29.126Z,100157.35
2018-05-11T18:46:30.401Z,100151.49
2018-05-11T18:49:31.658Z,100157.67
2018-05-11T18:52:32.924Z,100153.44
2018-05-11T18:55:34.189Z,100154.16
2018-05-11T18:58:35.452Z,100157.02
2018-05-11T19:01:36.777Z,100154.55
2018-05-11T19:04:38.069Z,100155.28
2018-05-11T19:07:39.360Z,100156.84
2018-05-11T19:10:40.617Z,100162.06
2018-05-11T19:13:42.628Z,100171.77
2018-05-11T19:16:43.924Z,100163.44
2018-05-11T19:19:45.938Z,100165.19
2018-05-11T19:22:47.190Z,100169.31
2018-05-11T19:25:48.470Z,100179.78
2018-05-11T19:28:49.749Z,100171.45
2018-05-11T19:31:51.054Z,100178.91
2018-05-11T19:34:53.035Z,100179.41
2018-05-11T19:37:55.063Z,100177.59
2018-05-11T19:40:56.327Z,100184.17
2018-05-11T19:43:57.620Z,100181.36
2018-05-11T19:46:58.914Z,100186.98
2018-05-11T19:50:00.962Z,100177.17
2018-05-11T19:53:02.268Z,100190.36
2018-05-11T19:56:03.664Z,100183.68
2018-05-11T19:59:04.876Z,100189.00
2018-05-11T20:02:06.906Z,100193.56
2018-05-11T20:05:08.189Z,100189.84
2018-05-11T20:08:09.464Z,100198.47
2018-05-11T20:11:10.737Z,100196.19
2018-05-11T20:14:12.022Z,100196.58
2018-05-11T20:17:14.006Z,100194.00
2018-05-11T20:20:16.042Z,100201.73
2018-05-11T20:23:17.332Z,100201.14
2018-05-11T20:26:19.362Z,100193.28
2018-05-11T20:29:20.658Z,100193.25
2018-05-11T20:32:22.043Z,100191.95
2018-05-11T20:35:23.212Z,100193.64
2018-05-11T20:38:25.238Z,100188.22
2018-05-11T20:41:26.493Z,100193.41
2018-05-11T20:44:27.794Z,100196.52
2018-05-11T20:47:29.103Z,100194.32
2018-05-11T20:50:30.381Z,100189.42
2018-05-11T20:53:31.637Z,100197.83
2018-05-11T20:56:32.890Z,100193.98
2018-05-11T20:59:34.921Z,100192.42
2018-05-11T21:02:36.205Z,100195.58
2018-05-11T21:05:37.456Z,100197.85
2018-05-11T21:08:38.764Z,100189.87
2018-05-11T21:11:40.015Z,100188.28
2018-05-11T21:14:42.170Z,100185.05
2018-05-11T21:17:43.306Z,100187.48
2018-05-11T21:20:44.614Z,100176.28
2018-05-11T21:23:45.899Z,100175.05
2018-05-11T21:26:47.917Z,100166.32
2018-05-11T21:29:49.175Z,100164.06
2018-05-11T21:32:50.471Z,100164.23
2018-05-11T21:35:51.739Z,100169.74
2018-05-11T21:38:53.005Z,100169.74
2018-05-11T21:41:54.282Z,100162.66
2018-05-11T21:44:56.336Z,100169.97
2018-05-11T21:47:57.598Z,100168.67
2018-05-11T21:50:58.876Z,100174.72
2018-05-11T21:54:00.162Z,100169.72
2018-05-11T21:57:02.208Z,100169.75
2018-05-11T22:00:04.370Z,100164.83
2018-05-11T22:03:05.676Z,100172.70
2018-05-11T22:06:07.689Z,100168.98
2018-05-11T22:09:08.978Z,100168.27
2018-05-11T22:12:10.257Z,100161.09
2018-05-11T22:15:11.555Z,100155.30
2018-05-11T22:18:13.575Z,100165.11
2018-05-11T22:21:14.827Z,100164.81
2018-05-11T22:24:16.114Z,100155.83
2018-05-11T22:27:17.437Z,100155.87
2018-05-11T22:30:19.542Z,100156.53
2018-05-11T22:33:20.803Z,100153.38
2018-05-11T22:36:22.125Z,100153.16
2018-05-11T22:39:24.158Z,100157.00
2018-05-11T22:42:25.432Z,100161.30
2018-05-11T22:45:26.701Z,100150.38
2018-05-11T22:48:27.975Z,100155.72
2018-05-11T22:51:29.237Z,100158.23
2018-05-11T22:54:30.470Z,100160.36
2018-05-11T22:57:31.703Z,100161.10
2018-05-11T23:00:39.934Z,100154.91
2018-05-11T23:03:41.978Z,100162.47
2018-05-11T23:06:43.182Z,100157.73
2018-05-11T23:09:45.158Z,100150.38
2018-05-11T23:12:47.158Z,100151.53
2018-05-11T23:15:48.408Z,100148.13
2018-05-11T23:18:49.669Z,100151.72
2018-05-11T23:21:51.650Z,100152.15
2018-05-11T23:24:53.620Z,100155.92
2018-05-11T23:27:55.650Z,100153.56
2018-05-11T23:30:57.614Z,100148.82
2018-05-11T23:33:58.874Z,100146.54
2018-05-11T23:37:00.150Z,100142.70
2018-05-11T23:40:01.380Z,100142.59
2018-05-11T23:43:03.424Z,100140.78
2018-05-11T23:46:04.663Z,100144.25
2018-05-11T23:49:05.937Z,100147.80
2018-05-11T23:52:07.183Z,100140.74
2018-05-11T23:55:08.469Z,100138.50
2018-05-11T23:58:09.736Z,100140.52
